Terminal Aerodrome Forecast
Issued by NWS

Home | Current Version | Previous Version | Text Only | Print | Product List | Glossary Off
Versions: 1 2 3 4 5 6 7 8 9 10 11 12 13 14

000
FTUS43 KTOP 250227 AAA
TAFMHK
TAF AMD
KMHK 250227Z 2502/2524 15008KT 5SM SHRA VCTS SCT030CB BKN050
     FM250400 15006KT P6SM VCTS BKN030CB
     FM250700 18007KT P6SM SCT015 BKN035
     FM251100 35008KT P6SM BKN050=

USA.gov is the U.S. government's official web portal to all federal, state and local government web resources and services.